Terminal Aerodrome Forecast
Issued by NWS

Home | Current Version | Previous Version | Text Only | Print | Product List | Glossary On
Versions: 1 2 3 4 5 6 7 8 9 10 11 12 13
000
FTUS46 KLOX 262337
TAFPRB
TAF
KPRB 262337Z 2700/2724 10010KT P6SM SKC
     FM270100 19010KT P6SM SKC
     FM270300 19005KT P6SM SKC
     FM270500 VRB03KT P6SM SKC
     FM272000 26006KT P6SM SKC
     FM272200 21011KT P6SM SKC=

USA.gov is the U.S. government's official web portal to all federal, state and local government web resources and services.